Périgueux-Bassillac Airport

Airport
ICAO code: 
LFBX
IATA Code: 
PGX
Summary
ICAO Region: 
EUR
Territory: 
Location: 
, Aquitaine
Serving: 
Perigueux
Elevation: 
328 ft
Coordinates: 
Aerial View: 
45° 11' 52.998" N, 0° 48' 56.002" E
Metar
Observation
LFBX 060700Z AUTO 28003KT 250V320 9999 OVC045 06/04 Q1019
Station
Perigueux
Date/Time
2021-12-06 07:00:00
Wind direction
280°
Wind speed
03 kts
Lowest cloud amount
overcast
Temperature
6°C
Dew point
4°C
Humidity
86%
QNH
1019 hPa
Weather condition
n/a

Runways

Designator Length Width Surface Rops
12/30 1750 30 ASP No/No
Airport map: 
Aerial View: 

SKYbrary Partners:

Safety knowledge contributed by: